Time;durP1;ratioP1;P1;durP2;ratioP2;P2;SDS_P1;SDS_P2;PMS_P1;PMS_P2;Temp;Humidity;BMP_temperature;BMP_pressure;BME280_temperature;BME280_humidity;BME280_pressure;Samples;Min_cycle;Max_cycle;Signal;HPM_P1;HPM_P2
2023/09/11 00:01:15;;;;;;;3.22;1.60;;;16.00;99.90;;;;;;5072620;28;20247;-70
2023/09/11 00:03:41;;;;;;;3.28;1.50;;;16.00;99.90;;;;;;5054453;28;20255;-71
2023/09/11 00:06:07;;;;;;;0.90;0.90;;;16.00;99.90;;;;;;5072640;28;20220;-71
2023/09/11 00:08:33;;;;;;;0.52;0.52;;;16.00;99.90;;;;;;5072237;28;20679;-71
2023/09/11 00:10:59;;;;;;;0.82;0.82;;;16.10;99.90;;;;;;5072465;28;20197;-71
2023/09/11 00:13:26;;;;;;;1.15;1.05;;;16.10;99.90;;;;;;5071865;28;20238;-71
2023/09/11 00:15:52;;;;;;;0.60;0.60;;;16.10;99.90;;;;;;5072361;28;20193;-71
2023/09/11 00:18:17;;;;;;;1.23;1.02;;;16.10;99.90;;;;;;5072287;28;20196;-71
2023/09/11 00:20:43;;;;;;;1.08;1.00;;;16.10;99.90;;;;;;5072082;28;20288;-71
2023/09/11 00:23:09;;;;;;;1.05;1.05;;;16.20;99.90;;;;;;5072373;28;20304;-71
2023/09/11 00:25:35;;;;;;;1.70;1.30;;;16.20;99.90;;;;;;5071900;28;20197;-71
2023/09/11 00:28:01;;;;;;;1.67;1.58;;;16.20;99.90;;;;;;5072345;28;20203;-72
2023/09/11 00:30:26;;;;;;;0.63;0.63;;;16.20;99.90;;;;;;5072187;28;20272;-71
2023/09/11 00:32:52;;;;;;;0.98;0.98;;;16.20;99.90;;;;;;5072345;28;20200;-70
2023/09/11 00:35:18;;;;;;;1.10;1.00;;;16.20;99.90;;;;;;5071863;28;20201;-71
2023/09/11 00:37:43;;;;;;;3.83;1.20;;;16.20;99.90;;;;;;5072131;28;20193;-71
2023/09/11 00:40:09;;;;;;;0.98;0.90;;;16.20;99.90;;;;;;5072063;28;20280;-70
2023/09/11 00:42:35;;;;;;;0.77;0.75;;;16.30;99.90;;;;;;5072003;28;20670;-71
2023/09/11 00:45:01;;;;;;;0.80;0.80;;;16.30;99.90;;;;;;5072113;28;20193;-70
2023/09/11 00:47:27;;;;;;;1.35;1.25;;;16.30;99.90;;;;;;5071775;28;20275;-72
2023/09/11 00:49:55;;;;;;;1.08;0.95;;;16.30;99.90;;;;;;5072124;28;20245;-73
2023/09/11 00:52:22;;;;;;;0.50;0.50;;;16.30;99.90;;;;;;5053935;28;20208;-71
2023/09/11 00:54:48;;;;;;;1.45;0.93;;;16.30;99.90;;;;;;5071969;28;20205;-71
2023/09/11 00:57:17;;;;;;;0.50;0.50;;;16.30;99.90;;;;;;5071932;28;20226;-71
2023/09/11 00:59:44;;;;;;;0.68;0.68;;;16.30;99.90;;;;;;5072042;28;20643;-71
2023/09/11 01:02:12;;;;;;;1.33;1.23;;;16.30;99.90;;;;;;5072099;28;20196;-74
2023/09/11 01:04:39;;;;;;;1.65;0.90;;;16.30;99.90;;;;;;5071426;28;20585;-73
2023/09/11 01:07:05;;;;;;;1.13;0.77;;;16.30;99.90;;;;;;5071948;28;20188;-73
2023/09/11 01:09:33;;;;;;;1.48;1.10;;;16.30;99.90;;;;;;5072014;28;20552;-73
2023/09/11 01:11:58;;;;;;;1.15;1.08;;;16.30;99.90;;;;;;5071525;28;20305;-74
2023/09/11 01:14:25;;;;;;;0.70;0.70;;;16.30;99.90;;;;;;5071672;28;20193;-73
2023/09/11 01:17:15;;;;;;;2.45;1.10;;;16.30;99.90;;;;;;5071617;28;20197;-74
2023/09/11 01:19:55;;;;;;;1.63;1.00;;;16.30;99.90;;;;;;5053681;28;20599;-74
2023/09/11 01:22:33;;;;;;;0.95;0.95;;;16.30;99.90;;;;;;5071678;28;20192;-73
2023/09/11 01:25:19;;;;;;;1.23;1.13;;;16.30;99.90;;;;;;5063536;28;20540;-74
2023/09/11 01:28:05;;;;;;;0.85;0.85;;;16.30;99.90;;;;;;5075629;28;20271;-73
2023/09/11 01:30:32;;;;;;;0.70;0.70;;;16.30;99.90;;;;;;5075353;28;20201;-73
2023/09/11 01:32:58;;;;;;;1.42;1.02;;;16.20;99.90;;;;;;5057679;28;20205;-73
2023/09/11 01:35:24;;;;;;;1.38;1.02;;;16.20;99.90;;;;;;5075412;28;20389;-73
2023/09/11 01:37:49;;;;;;;0.52;0.52;;;16.20;99.90;;;;;;5075670;28;20537;-73
2023/09/11 01:40:15;;;;;;;1.58;1.27;;;16.20;99.90;;;;;;5057855;28;20205;-71
2023/09/11 01:42:44;;;;;;;1.95;0.80;;;16.20;99.90;;;;;;5075380;28;20197;-73
2023/09/11 01:45:14;;;;;;;0.80;0.75;;;16.20;99.90;;;;;;5075376;28;20242;-73
2023/09/11 01:47:45;;;;;;;1.15;1.10;;;16.20;99.90;;;;;;5075311;28;20280;-73
2023/09/11 01:50:14;;;;;;;0.60;0.60;;;16.20;99.90;;;;;;5075374;28;20209;-73
2023/09/11 01:52:40;;;;;;;1.95;1.45;;;16.20;99.90;;;;;;5057138;28;20328;-73
2023/09/11 01:55:07;;;;;;;2.92;0.93;;;16.20;99.90;;;;;;5075005;28;20246;-73
2023/09/11 01:57:33;;;;;;;2.78;1.25;;;16.30;99.90;;;;;;5074807;28;20201;-73
2023/09/11 01:59:59;;;;;;;1.83;0.98;;;16.30;99.90;;;;;;5056902;28;20690;-73
2023/09/11 02:02:24;;;;;;;1.63;1.52;;;16.30;99.90;;;;;;5074998;28;20243;-73
2023/09/11 02:04:50;;;;;;;1.15;0.95;;;16.30;99.90;;;;;;5074931;28;20228;-72
2023/09/11 02:07:16;;;;;;;0.88;0.88;;;16.20;99.90;;;;;;5074929;28;20185;-73
2023/09/11 02:09:41;;;;;;;1.17;1.13;;;16.20;99.90;;;;;;5074897;28;20189;-73
2023/09/11 02:12:07;;;;;;;0.95;0.95;;;16.20;99.90;;;;;;5074901;28;20670;-75
2023/09/11 02:14:33;;;;;;;1.20;1.08;;;16.20;99.90;;;;;;5074849;28;20196;-75
2023/09/11 02:17:02;;;;;;;0.80;0.80;;;16.20;99.90;;;;;;5056957;28;20193;-75
2023/09/11 02:19:31;;;;;;;0.65;0.65;;;16.20;99.90;;;;;;5081093;28;20192;-76
2023/09/11 02:21:57;;;;;;;2.33;1.88;;;16.20;99.90;;;;;;5094970;28;20683;-76
2023/09/11 02:24:23;;;;;;;0.77;0.65;;;16.10;99.90;;;;;;5088321;28;20204;-75
2023/09/11 02:26:50;;;;;;;1.27;1.17;;;16.20;99.90;;;;;;5074987;28;20189;-76
2023/09/11 02:29:15;;;;;;;1.42;0.93;;;16.20;99.90;;;;;;5074477;28;20193;-75
2023/09/11 02:31:41;;;;;;;1.17;1.10;;;16.20;99.90;;;;;;5074743;28;20196;-75
2023/09/11 02:34:07;;;;;;;0.80;0.80;;;16.20;99.90;;;;;;5074538;28;20597;-76
2023/09/11 02:36:32;;;;;;;0.93;0.93;;;16.20;99.90;;;;;;5074252;28;20189;-76
2023/09/11 02:38:58;;;;;;;2.33;1.48;;;16.20;99.90;;;;;;5074734;28;20193;-76
2023/09/11 02:41:24;;;;;;;1.92;1.45;;;16.20;99.90;;;;;;5074333;28;20220;-75
2023/09/11 02:43:49;;;;;;;0.80;0.80;;;16.20;99.90;;;;;;5075138;28;20193;-75
2023/09/11 02:46:15;;;;;;;0.98;0.95;;;16.10;99.90;;;;;;5074346;28;20223;-75
2023/09/11 02:48:46;;;;;;;1.10;1.10;;;16.10;99.90;;;;;;5074592;28;20213;-76
2023/09/11 02:51:12;;;;;;;2.13;1.73;;;16.20;99.90;;;;;;5074202;28;20702;-76
2023/09/11 02:53:38;;;;;;;2.00;1.80;;;16.20;99.90;;;;;;5073963;28;20200;-75
2023/09/11 02:56:04;;;;;;;2.97;2.00;;;16.10;99.90;;;;;;5074205;28;20192;-75
2023/09/11 02:58:30;;;;;;;1.00;1.00;;;16.10;99.90;;;;;;5073574;28;20208;-75
2023/09/11 03:01:03;;;;;;;1.10;1.08;;;16.20;99.90;;;;;;5074081;28;20209;-75
2023/09/11 03:03:29;;;;;;;2.13;1.55;;;16.20;99.90;;;;;;5055360;28;20193;-76
2023/09/11 03:06:00;;;;;;;0.80;0.80;;;16.20;99.90;;;;;;5074253;28;20557;-76
2023/09/11 03:08:26;;;;;;;1.30;1.20;;;16.20;99.90;;;;;;5074100;28;20727;-75
2023/09/11 03:10:51;;;;;;;1.85;1.58;;;16.20;99.90;;;;;;5056069;28;20200;-75
2023/09/11 03:13:17;;;;;;;4.45;1.63;;;16.20;99.90;;;;;;5073719;28;20189;-75
2023/09/11 03:15:43;;;;;;;0.70;0.70;;;16.20;99.90;;;;;;5073845;28;20189;-76
2023/09/11 03:18:09;;;;;;;2.75;1.98;;;16.20;99.90;;;;;;5055775;28;20200;-75
2023/09/11 03:20:34;;;;;;;2.03;1.83;;;16.20;99.90;;;;;;5073854;28;20204;-73
2023/09/11 03:23:00;;;;;;;3.13;1.45;;;16.20;99.90;;;;;;5055666;28;20189;-73
2023/09/11 03:25:26;;;;;;;3.20;2.40;;;16.20;99.90;;;;;;5072975;28;20251;-73
2023/09/11 03:27:52;;;;;;;1.95;1.20;;;16.20;99.90;;;;;;5073555;28;20189;-73
2023/09/11 03:30:18;;;;;;;2.42;2.08;;;16.20;99.90;;;;;;5073476;28;20604;-74
2023/09/11 03:32:44;;;;;;;2.20;1.13;;;16.20;99.90;;;;;;5073468;28;20193;-73
2023/09/11 03:35:12;;;;;;;1.08;1.05;;;16.20;99.90;;;;;;5073291;28;20600;-73
2023/09/11 03:37:38;;;;;;;0.68;0.68;;;16.20;99.90;;;;;;5073131;28;20267;-73
2023/09/11 03:40:08;;;;;;;1.45;1.35;;;16.30;99.90;;;;;;5073200;28;20647;-73
2023/09/11 03:42:34;;;;;;;1.40;1.23;;;16.30;99.90;;;;;;5073186;28;20246;-73
2023/09/11 03:45:00;;;;;;;2.28;1.73;;;16.30;99.90;;;;;;5073236;28;20199;-73
2023/09/11 03:47:26;;;;;;;1.63;1.52;;;16.30;99.90;;;;;;5072330;28;20669;-72
2023/09/11 03:49:51;;;;;;;4.25;1.83;;;16.30;99.90;;;;;;5073066;28;20242;-73
2023/09/11 03:52:17;;;;;;;2.42;2.22;;;16.30;99.90;;;;;;5072791;28;20193;-73
2023/09/11 03:54:43;;;;;;;12.07;3.35;;;16.30;99.90;;;;;;5072644;28;20200;-73
2023/09/11 03:57:08;;;;;;;1.92;1.83;;;16.30;99.90;;;;;;5054758;28;20205;-73
2023/09/11 03:59:34;;;;;;;0.73;0.65;;;16.30;99.90;;;;;;5072584;28;20193;-73
2023/09/11 04:02:00;;;;;;;1.92;0.80;;;16.30;99.90;;;;;;5072760;28;20212;-73
2023/09/11 04:04:25;;;;;;;1.40;1.30;;;16.30;99.90;;;;;;5072601;28;20334;-73
2023/09/11 04:06:51;;;;;;;0.90;0.90;;;16.30;99.90;;;;;;5072752;28;20202;-73
2023/09/11 04:09:17;;;;;;;0.88;0.88;;;16.30;99.90;;;;;;5072652;28;20272;-73
2023/09/11 04:11:42;;;;;;;1.63;1.52;;;16.30;99.90;;;;;;5072352;28;20287;-74
2023/09/11 04:14:08;;;;;;;2.40;1.45;;;16.30;99.90;;;;;;5054576;28;20287;-74
2023/09/11 04:16:34;;;;;;;0.80;0.80;;;16.30;99.90;;;;;;5072421;28;20204;-73
2023/09/11 04:18:59;;;;;;;1.08;1.08;;;16.30;99.90;;;;;;5072523;28;20558;-73
2023/09/11 04:21:25;;;;;;;2.30;0.95;;;16.40;99.90;;;;;;5072065;28;20574;-73
2023/09/11 04:23:51;;;;;;;1.13;1.08;;;16.40;99.90;;;;;;5072317;28;20267;-73
2023/09/11 04:26:16;;;;;;;1.55;1.40;;;16.40;99.90;;;;;;5072357;28;20189;-73
2023/09/11 04:28:42;;;;;;;0.82;0.82;;;16.40;99.90;;;;;;5072306;28;20674;-74
2023/09/11 04:31:08;;;;;;;7.78;2.33;;;16.40;99.90;;;;;;5072381;28;20529;-74
2023/09/11 04:33:34;;;;;;;1.85;1.15;;;16.40;99.90;;;;;;5072337;28;20678;-73
2023/09/11 04:36:00;;;;;;;17.33;1.52;;;16.40;99.90;;;;;;5072182;28;20582;-74
2023/09/11 04:38:26;;;;;;;0.55;0.55;;;16.40;99.90;;;;;;5054154;28;20235;-73
2023/09/11 04:40:58;;;;;;;0.68;0.68;;;16.40;99.90;;;;;;5054325;28;20594;-73
2023/09/11 04:43:24;;;;;;;1.08;0.90;;;16.40;99.90;;;;;;5072103;28;20699;-74
2023/09/11 04:45:53;;;;;;;2.10;1.58;;;16.40;99.90;;;;;;5072264;28;20208;-73
2023/09/11 04:48:18;;;;;;;4.38;1.23;;;16.50;99.90;;;;;;5072183;28;20560;-73
2023/09/11 04:50:44;;;;;;;0.60;0.60;;;16.50;99.90;;;;;;5072029;28;20196;-73
2023/09/11 04:53:10;;;;;;;2.40;0.70;;;16.50;99.90;;;;;;5071919;28;20189;-73
2023/09/11 04:55:35;;;;;;;0.65;0.43;;;16.50;99.90;;;;;;5071992;28;20200;-74
2023/09/11 04:58:01;;;;;;;0.77;0.77;;;16.50;99.90;;;;;;5071846;28;20196;-73
2023/09/11 05:00:26;;;;;;;0.57;0.57;;;16.50;99.90;;;;;;5072607;28;20201;-73
2023/09/11 05:02:52;;;;;;;0.90;0.88;;;16.50;99.90;;;;;;5072164;28;20246;-73
2023/09/11 05:05:18;;;;;;;0.85;0.85;;;16.60;99.90;;;;;;5071859;28;20294;-74
2023/09/11 05:07:44;;;;;;;1.85;0.90;;;16.50;99.90;;;;;;5071852;28;20192;-73
2023/09/11 05:10:10;;;;;;;0.88;0.88;;;16.60;99.90;;;;;;5054054;28;20220;-74
2023/09/11 05:12:35;;;;;;;0.60;0.60;;;16.60;99.90;;;;;;5071739;28;20193;-74
2023/09/11 05:15:02;;;;;;;0.88;0.88;;;16.60;99.90;;;;;;5071855;28;20254;-74
2023/09/11 05:17:30;;;;;;;1.20;0.95;;;16.60;99.90;;;;;;5071298;28;20765;-74
2023/09/11 05:19:56;;;;;;;0.73;0.73;;;16.60;99.90;;;;;;5071947;28;20663;-73
2023/09/11 05:22:21;;;;;;;0.50;0.50;;;16.60;99.90;;;;;;5071801;28;20193;-73
2023/09/11 05:24:47;;;;;;;0.70;0.70;;;16.60;99.90;;;;;;5071740;28;20625;-73
2023/09/11 05:27:13;;;;;;;0.47;0.47;;;16.70;99.90;;;;;;5053834;28;20292;-73
2023/09/11 05:29:38;;;;;;;0.80;0.80;;;16.70;99.90;;;;;;5053625;28;20254;-73
2023/09/11 05:32:04;;;;;;;0.57;0.57;;;16.70;99.90;;;;;;5071567;28;20239;-74
2023/09/11 05:34:30;;;;;;;2.85;1.17;;;16.70;99.90;;;;;;5071594;28;20259;-73
2023/09/11 05:36:55;;;;;;;1.33;1.17;;;16.70;99.90;;;;;;5071758;28;20644;-73
2023/09/11 05:39:21;;;;;;;0.85;0.80;;;16.80;99.90;;;;;;5071334;28;20224;-74
2023/09/11 05:41:46;;;;;;;1.00;0.88;;;16.70;99.90;;;;;;5071883;28;20208;-73
2023/09/11 05:44:12;;;;;;;1.38;0.75;;;16.80;99.90;;;;;;5071566;28;20196;-73
2023/09/11 05:46:38;;;;;;;2.67;1.35;;;16.80;99.90;;;;;;5071363;28;20208;-73
2023/09/11 05:49:04;;;;;;;2.22;1.52;;;16.80;99.90;;;;;;5071643;28;20220;-73
2023/09/11 05:51:30;;;;;;;0.82;0.82;;;16.80;99.90;;;;;;5071509;28;20299;-73
2023/09/11 05:53:55;;;;;;;1.58;1.05;;;16.80;99.90;;;;;;5071569;28;20207;-73
2023/09/11 05:56:21;;;;;;;1.75;1.52;;;16.90;99.90;;;;;;5053138;28;20659;-73
2023/09/11 05:58:47;;;;;;;2.10;1.42;;;16.90;99.90;;;;;;5071749;28;20215;-73
2023/09/11 06:01:16;;;;;;;2.28;1.33;;;16.90;99.90;;;;;;5071455;28;20287;-73
2023/09/11 06:03:41;;;;;;;3.00;1.20;;;16.90;99.90;;;;;;5071157;28;20308;-73
2023/09/11 06:06:07;;;;;;;1.48;1.38;;;16.90;99.90;;;;;;5071510;28;20280;-73
2023/09/11 06:08:33;;;;;;;1.33;1.23;;;16.90;99.90;;;;;;5053344;28;20192;-73
2023/09/11 06:10:59;;;;;;;1.17;1.08;;;16.90;99.90;;;;;;5054740;28;20197;-74
2023/09/11 06:13:26;;;;;;;0.95;0.95;;;16.90;99.90;;;;;;5075074;28;20284;-73
2023/09/11 06:15:52;;;;;;;0.68;0.68;;;16.90;99.90;;;;;;5056994;28;20197;-73
2023/09/11 06:18:17;;;;;;;0.80;0.80;;;16.90;99.90;;;;;;5074868;28;20204;-73
2023/09/11 06:20:43;;;;;;;0.63;0.63;;;16.90;99.90;;;;;;5074751;28;20208;-73
2023/09/11 06:23:10;;;;;;;1.48;1.05;;;17.00;99.90;;;;;;5074828;28;20200;-73
2023/09/11 06:25:36;;;;;;;1.08;1.00;;;17.00;99.90;;;;;;5074373;28;20197;-74
2023/09/11 06:28:03;;;;;;;0.63;0.63;;;17.00;99.90;;;;;;5074705;28;20683;-73
2023/09/11 06:30:31;;;;;;;0.52;0.52;;;17.10;99.90;;;;;;5074600;28;20531;-74
2023/09/11 06:32:57;;;;;;;0.77;0.73;;;17.10;99.90;;;;;;5074434;28;20201;-73
2023/09/11 06:35:22;;;;;;;0.63;0.57;;;17.10;99.90;;;;;;5074282;28;20220;-73
2023/09/11 06:37:48;;;;;;;0.47;0.47;;;17.20;99.90;;;;;;5074504;28;20189;-74
2023/09/11 06:40:14;;;;;;;1.33;0.98;;;17.20;99.90;;;;;;5074405;28;20211;-73
2023/09/11 06:42:40;;;;;;;0.60;0.60;;;17.20;99.90;;;;;;5056226;28;20575;-73
2023/09/11 06:45:06;;;;;;;0.73;0.73;;;17.20;99.90;;;;;;5074765;28;20268;-74
2023/09/11 06:47:32;;;;;;;0.93;0.90;;;17.30;99.90;;;;;;5056309;28;20561;-74
2023/09/11 06:49:58;;;;;;;0.85;0.85;;;17.20;99.90;;;;;;5074344;28;20185;-73
2023/09/11 06:52:23;;;;;;;0.70;0.70;;;17.30;99.90;;;;;;5056260;28;20201;-76
2023/09/11 06:54:49;;;;;;;0.50;0.50;;;17.30;99.90;;;;;;5074546;28;20608;-76
2023/09/11 06:57:15;;;;;;;0.55;0.55;;;17.30;99.90;;;;;;5074321;28;20199;-74
2023/09/11 06:59:40;;;;;;;1.08;0.60;;;17.30;99.90;;;;;;5074474;28;20250;-75
2023/09/11 07:02:07;;;;;;;0.65;0.65;;;17.30;99.90;;;;;;5073946;28;20209;-76
2023/09/11 07:04:32;;;;;;;2.20;1.42;;;17.30;99.90;;;;;;5073769;28;20600;-75
2023/09/11 07:06:58;;;;;;;1.17;1.08;;;17.40;99.90;;;;;;5074166;28;20189;-75
2023/09/11 07:09:25;;;;;;;1.02;0.90;;;17.40;99.90;;;;;;5073501;28;20232;-75
2023/09/11 07:11:52;;;;;;;0.55;0.55;;;17.30;99.90;;;;;;5073813;28;20196;-75
2023/09/11 07:14:23;;;;;;;1.83;1.05;;;17.40;99.90;;;;;;5073830;28;20284;-75
2023/09/11 07:16:49;;;;;;;0.70;0.70;;;17.40;99.90;;;;;;5073597;28;20193;-75
2023/09/11 07:19:15;;;;;;;3.83;1.20;;;17.40;99.90;;;;;;5073861;28;20196;-76
2023/09/11 07:21:41;;;;;;;0.80;0.80;;;17.50;99.90;;;;;;5054780;28;20557;-75
2023/09/11 07:24:07;;;;;;;1.83;1.27;;;17.50;99.90;;;;;;5072964;28;20189;-76
2023/09/11 07:26:33;;;;;;;1.00;0.82;;;17.60;99.90;;;;;;5073412;28;20276;-75
2023/09/11 07:29:03;;;;;;;0.80;0.80;;;17.60;99.90;;;;;;5073552;28;20275;-76
2023/09/11 07:31:30;;;;;;;2.20;1.08;;;17.70;99.90;;;;;;5073250;28;20280;-75
2023/09/11 07:33:56;;;;;;;0.70;0.70;;;17.70;99.90;;;;;;5073407;28;20200;-75
2023/09/11 07:36:22;;;;;;;1.95;1.75;;;17.80;99.90;;;;;;5073260;28;20201;-75
2023/09/11 07:38:48;;;;;;;4.05;1.05;;;17.80;99.90;;;;;;5073210;28;20546;-74
2023/09/11 07:41:16;;;;;;;0.60;0.60;;;17.70;99.90;;;;;;5073257;28;20277;-75
2023/09/11 07:43:46;;;;;;;1.65;1.15;;;17.80;99.90;;;;;;5073223;28;20220;-75
2023/09/11 07:46:11;;;;;;;0.85;0.85;;;17.80;99.90;;;;;;5073482;28;20516;-75
2023/09/11 07:48:37;;;;;;;0.40;0.40;;;17.80;99.90;;;;;;5073358;28;20249;-75
2023/09/11 07:51:03;;;;;;;0.95;0.63;;;17.90;99.90;;;;;;5055199;28;20205;-75
2023/09/11 07:53:29;;;;;;;4.00;1.83;;;17.90;99.90;;;;;;5072907;28;20207;-75
2023/09/11 07:55:54;;;;;;;1.00;0.90;;;17.90;99.90;;;;;;5072932;28;20189;-75
2023/09/11 07:58:23;;;;;;;1.45;1.02;;;18.00;99.90;;;;;;5072582;28;20197;-75
2023/09/11 08:00:49;;;;;;;3.20;1.17;;;18.00;99.90;;;;;;5073218;28;20553;-75
2023/09/11 08:03:17;;;;;;;3.33;1.77;;;18.10;99.90;;;;;;5072878;28;20250;-75
2023/09/11 08:05:43;;;;;;;2.08;1.15;;;18.10;99.90;;;;;;5072246;28;20630;-75
2023/09/11 08:08:08;;;;;;;0.98;0.85;;;18.20;99.90;;;;;;5072582;28;20192;-75
2023/09/11 08:10:34;;;;;;;1.00;0.77;;;18.20;99.90;;;;;;5072746;28;20545;-76
2023/09/11 08:12:59;;;;;;;4.57;1.75;;;18.20;99.90;;;;;;5072632;28;20200;-75
2023/09/11 08:15:28;;;;;;;2.30;1.27;;;18.20;99.90;;;;;;5054614;28;20288;-75
2023/09/11 08:17:53;;;;;;;1.85;0.73;;;18.20;99.90;;;;;;5072374;28;20652;-76
2023/09/11 08:20:19;;;;;;;1.55;1.33;;;18.20;99.90;;;;;;5072485;28;20219;-75
2023/09/11 08:22:44;;;;;;;1.25;1.15;;;18.30;99.90;;;;;;5072620;28;20199;-75
2023/09/11 08:25:12;;;;;;;13.52;1.25;;;18.20;99.90;;;;;;5072313;28;20276;-75
2023/09/11 08:27:37;;;;;;;0.98;0.77;;;18.30;99.90;;;;;;5072169;28;20185;-75
2023/09/11 08:30:05;;;;;;;2.80;1.17;;;18.40;99.90;;;;;;5072561;28;20243;-76
2023/09/11 08:32:32;;;;;;;2.80;1.23;;;18.40;99.90;;;;;;5072055;28;20193;-76
2023/09/11 08:34:58;;;;;;;0.70;0.70;;;18.40;99.90;;;;;;5071735;28;20272;-76
2023/09/11 08:37:26;;;;;;;4.10;1.25;;;18.40;99.90;;;;;;5072435;28;20582;-76
2023/09/11 08:39:52;;;;;;;0.60;0.60;;;18.40;99.90;;;;;;5072187;28;20197;-76
2023/09/11 08:42:18;;;;;;;1.33;1.23;;;18.40;99.90;;;;;;5054262;28;20193;-76
2023/09/11 08:44:44;;;;;;;1.08;0.88;;;18.50;99.90;;;;;;5072437;28;20238;-76
2023/09/11 08:47:12;;;;;;;0.80;0.68;;;18.50;99.90;;;;;;5072339;28;20567;-76
2023/09/11 08:49:51;;;;;;;0.60;0.60;;;18.50;99.90;;;;;;5071958;28;20232;-76
2023/09/11 08:52:18;;;;;;;1.67;1.00;;;18.50;99.90;;;;;;5072094;28;20287;-76
2023/09/11 08:54:49;;;;;;;2.15;1.15;;;18.60;99.90;;;;;;5053941;28;20663;-76
2023/09/11 08:57:17;;;;;;;3.33;1.30;;;18.60;99.90;;;;;;5071880;28;20250;-76
2023/09/11 08:59:44;;;;;;;1.13;1.02;;;18.60;99.90;;;;;;5071580;28;20516;-76
2023/09/11 09:02:23;;;;;;;1.75;1.55;;;18.60;99.90;;;;;;5071610;28;20224;-76
2023/09/11 09:04:49;;;;;;;0.60;0.60;;;18.60;99.90;;;;;;5072056;28;20224;-75
2023/09/11 09:07:16;;;;;;;1.20;0.98;;;18.60;99.90;;;;;;5054207;28;20196;-75
2023/09/11 09:09:43;;;;;;;3.22;1.27;;;18.70;99.90;;;;;;5072113;28;20234;-76
2023/09/11 09:12:10;;;;;;;0.88;0.82;;;18.70;99.90;;;;;;5071940;28;20197;-73
2023/09/11 09:14:39;;;;;;;0.95;0.85;;;18.60;99.90;;;;;;5053737;28;20219;-73
2023/09/11 09:17:06;;;;;;;0.80;0.73;;;18.60;99.90;;;;;;5070794;28;20702;-73
2023/09/11 09:19:33;;;;;;;1.25;1.10;;;18.60;99.90;;;;;;5071719;28;20267;-73
2023/09/11 09:22:05;;;;;;;2.03;1.75;;;18.50;99.90;;;;;;5071713;28;20300;-73
2023/09/11 09:24:45;;;;;;;1.50;1.13;;;18.50;99.90;;;;;;5071710;28;20197;-73
2023/09/11 09:27:11;;;;;;;1.25;1.15;;;18.50;99.90;;;;;;5071913;28;20541;-74
2023/09/11 09:29:38;;;;;;;0.40;0.40;;;18.50;99.90;;;;;;5071579;28;20200;-73
2023/09/11 09:32:06;;;;;;;0.50;0.50;;;18.50;99.90;;;;;;5071457;28;20200;-73
2023/09/11 09:34:37;;;;;;;2.03;1.67;;;18.50;99.90;;;;;;5071635;28;20263;-73
2023/09/11 09:37:03;;;;;;;1.35;1.25;;;18.60;99.90;;;;;;5071634;28;20200;-73
2023/09/11 09:39:29;;;;;;;1.88;0.93;;;18.60;99.90;;;;;;5053581;28;20215;-73
2023/09/11 09:41:56;;;;;;;0.52;0.52;;;18.70;99.90;;;;;;5071577;28;20212;-73
2023/09/11 09:44:31;;;;;;;4.55;1.48;;;18.70;99.90;;;;;;5071483;28;20193;-74
2023/09/11 09:47:05;;;;;;;2.05;1.25;;;18.70;99.90;;;;;;5056692;28;20342;-73
2023/09/11 09:49:41;;;;;;;1.02;0.93;;;18.80;99.90;;;;;;5075207;28;20607;-73
2023/09/11 09:52:07;;;;;;;1.95;1.45;;;18.80;99.90;;;;;;5075250;28;20271;-72
2023/09/11 09:54:49;;;;;;;2.65;1.65;;;18.90;99.90;;;;;;5075175;28;20262;-73
2023/09/11 09:57:17;;;;;;;0.82;0.82;;;19.00;99.90;;;;;;5075168;28;20201;-73
2023/09/11 09:59:46;;;;;;;0.93;0.93;;;19.20;99.90;;;;;;5075290;28;20291;-73
2023/09/11 10:02:12;;;;;;;2.72;1.13;;;19.30;99.90;;;;;;5075060;28;20286;-73
2023/09/11 10:04:41;;;;;;;1.17;1.08;;;19.30;99.90;;;;;;5074764;28;20574;-73
2023/09/11 10:07:07;;;;;;;1.08;1.05;;;19.20;99.90;;;;;;5075107;28;20192;-73
2023/09/11 10:09:34;;;;;;;1.05;0.98;;;19.20;99.90;;;;;;5075036;28;20189;-73
2023/09/11 10:12:18;;;;;;;0.75;0.75;;;19.20;99.90;;;;;;5075185;28;20196;-72
2023/09/11 10:14:44;;;;;;;0.82;0.82;;;19.20;99.90;;;;;;5074962;28;20275;-73
2023/09/11 10:17:09;;;;;;;0.77;0.75;;;19.40;99.90;;;;;;5074667;28;20288;-74
2023/09/11 10:19:37;;;;;;;2.15;1.08;;;19.60;99.90;;;;;;5074786;28;20193;-72
2023/09/11 10:22:04;;;;;;;8.45;2.35;;;19.80;99.90;;;;;;5074727;28;20643;-75
2023/09/11 10:24:29;;;;;;;0.70;0.70;;;19.90;99.90;;;;;;5074581;28;20192;-76
2023/09/11 10:27:00;;;;;;;0.90;0.90;;;20.00;99.90;;;;;;5074604;28;20197;-76
2023/09/11 10:29:29;;;;;;;0.60;0.60;;;19.80;99.90;;;;;;5074689;28;20197;-75
2023/09/11 10:32:07;;;;;;;1.20;1.10;;;19.70;99.90;;;;;;5056626;28;20693;-74
2023/09/11 10:34:36;;;;;;;0.65;0.65;;;19.70;99.90;;;;;;5074516;28;20196;-75
2023/09/11 10:37:04;;;;;;;5.72;1.45;;;19.80;99.90;;;;;;5074711;28;20196;-75
2023/09/11 10:39:30;;;;;;;0.47;0.47;;;20.00;99.90;;;;;;5056536;28;20228;-75
2023/09/11 10:41:56;;;;;;;0.98;0.75;;;20.00;99.90;;;;;;5074345;28;20207;-75
2023/09/11 10:44:22;;;;;;;0.85;0.85;;;19.90;99.90;;;;;;5074140;28;20189;-75
2023/09/11 10:46:52;;;;;;;0.82;0.70;;;19.80;99.90;;;;;;5074403;28;20193;-75
2023/09/11 10:49:20;;;;;;;0.52;0.52;;;20.00;99.90;;;;;;5074351;28;20648;-75
2023/09/11 10:51:47;;;;;;;0.88;0.63;;;20.00;99.90;;;;;;5074434;28;20246;-75
2023/09/11 10:54:20;;;;;;;1.75;1.10;;;20.10;99.90;;;;;;5056065;28;20739;-75
2023/09/11 10:56:51;;;;;;;0.60;0.60;;;20.30;99.90;;;;;;5074527;28;20703;-76
2023/09/11 10:59:17;;;;;;;1.52;1.35;;;20.30;99.90;;;;;;5074539;28;20284;-75
2023/09/11 11:01:46;;;;;;;0.73;0.73;;;20.10;99.90;;;;;;5056125;28;20209;-74
2023/09/11 11:04:14;;;;;;;1.15;1.05;;;20.20;99.90;;;;;;5074053;28;20289;-75
2023/09/11 11:06:47;;;;;;;0.40;0.40;;;20.30;99.90;;;;;;5074056;28;20196;-75
2023/09/11 11:09:27;;;;;;;0.98;0.95;;;20.30;99.90;;;;;;5074070;28;20193;-74
2023/09/11 11:11:57;;;;;;;1.27;0.68;;;20.30;99.90;;;;;;5074038;28;20189;-75
2023/09/11 11:14:23;;;;;;;0.85;0.68;;;20.30;99.90;;;;;;5073747;28;20562;-75
2023/09/11 11:17:00;;;;;;;0.80;0.77;;;20.30;99.90;;;;;;5073733;28;20197;-75
2023/09/11 11:19:30;;;;;;;2.78;1.15;;;20.30;99.90;;;;;;5073666;28;20193;-74
2023/09/11 11:21:56;;;;;;;2.58;1.17;;;20.20;99.90;;;;;;5073654;28;20683;-75
2023/09/11 11:24:26;;;;;;;0.60;0.60;;;20.30;99.90;;;;;;5055183;28;20283;-75
2023/09/11 11:26:56;;;;;;;7.25;2.38;;;20.40;99.90;;;;;;5073603;28;20269;-74
2023/09/11 11:29:23;;;;;;;4.03;1.48;;;20.50;99.90;;;;;;5073504;28;20200;-74
2023/09/11 11:31:55;;;;;;;3.15;1.65;;;20.40;99.90;;;;;;5073685;28;20227;-74
2023/09/11 11:34:31;;;;;;;2.13;1.27;;;20.50;99.90;;;;;;5073197;28;20189;-74
2023/09/11 11:36:58;;;;;;;1.15;1.05;;;20.60;99.90;;;;;;5073345;28;20192;-74
2023/09/11 11:39:26;;;;;;;0.70;0.70;;;20.70;99.90;;;;;;5073189;28;20559;-74
2023/09/11 11:41:54;;;;;;;1.85;1.45;;;20.90;99.90;;;;;;5073323;28;20201;-74
2023/09/11 11:44:21;;;;;;;2.50;1.23;;;20.80;99.90;;;;;;5054623;28;20239;-74
2023/09/11 11:46:47;;;;;;;1.88;1.42;;;20.90;99.90;;;;;;5073241;28;20216;-74
2023/09/11 11:49:18;;;;;;;1.02;1.00;;;21.00;99.90;;;;;;5055196;28;20228;-73
2023/09/11 11:51:44;;;;;;;3.85;1.40;;;21.00;99.90;;;;;;5055177;28;20254;-74
2023/09/11 11:54:27;;;;;;;1.33;1.23;;;20.80;99.90;;;;;;5055100;28;20200;-74
2023/09/11 11:57:00;;;;;;;1.10;0.90;;;20.70;99.90;;;;;;5073036;28;20266;-74
2023/09/11 11:59:52;;;;;;;1.45;0.98;;;20.60;99.90;;;;;;5072761;28;20197;-74
2023/09/11 12:02:22;;;;;;;1.85;0.95;;;20.50;99.90;;;;;;5069619;28;20228;-74
2023/09/11 12:04:53;;;;;;;0.70;0.57;;;20.50;99.90;;;;;;5072604;28;20225;-74
2023/09/11 12:07:20;;;;;;;1.42;1.30;;;20.70;99.90;;;;;;5072715;28;20610;-74
2023/09/11 12:09:46;;;;;;;7.78;1.00;;;20.70;99.90;;;;;;5054051;28;20545;-73
2023/09/11 12:12:12;;;;;;;1.20;1.10;;;20.90;99.90;;;;;;5054592;28;20193;-72
2023/09/11 12:14:38;;;;;;;1.38;1.27;;;21.30;99.90;;;;;;5072366;28;20195;-72
2023/09/11 12:17:08;;;;;;;1.42;1.08;;;21.60;99.90;;;;;;5053710;28;20676;-73
2023/09/11 12:19:34;;;;;;;1.33;1.23;;;22.10;99.90;;;;;;5072188;28;20334;-72
2023/09/11 12:21:59;;;;;;;7.10;2.13;;;22.60;99.90;;;;;;5072441;28;20575;-73
2023/09/11 12:24:25;;;;;;;0.95;0.80;;;22.30;99.90;;;;;;5053958;28;20200;-74
2023/09/11 12:26:54;;;;;;;1.02;0.93;;;22.10;99.90;;;;;;5072639;28;20196;-76
2023/09/11 12:29:20;;;;;;;2.10;1.67;;;21.90;99.90;;;;;;5054367;28;20679;-75
2023/09/11 12:31:46;;;;;;;1.55;1.27;;;21.90;99.90;;;;;;5054720;28;20196;-74
2023/09/11 12:34:11;;;;;;;0.47;0.47;;;21.90;99.90;;;;;;5072397;28;20193;-73
2023/09/11 12:36:37;;;;;;;1.58;1.42;;;21.90;99.90;;;;;;5072272;28;20199;-73
2023/09/11 12:39:06;;;;;;;9.93;1.65;;;21.60;99.90;;;;;;5072402;28;20258;-74
2023/09/11 12:41:31;;;;;;;1.00;0.85;;;21.60;99.90;;;;;;5072198;28;20208;-73
2023/09/11 12:43:59;;;;;;;3.83;1.52;;;21.60;99.90;;;;;;5072266;28;20197;-73
2023/09/11 12:46:25;;;;;;;3.88;1.83;;;21.40;99.90;;;;;;5071825;28;20204;-73